createdAt,value
2023-09-22T00:00:22.356Z,993.25
2023-09-22T00:01:22.376Z,993.23
2023-09-22T00:02:22.311Z,993.22
2023-09-22T00:03:22.452Z,993.20
2023-09-22T00:04:22.372Z,993.23
2023-09-22T00:05:22.281Z,993.21
2023-09-22T00:06:22.337Z,993.22
2023-09-22T00:07:22.272Z,993.19
2023-09-22T00:08:22.248Z,993.20
2023-09-22T00:09:22.302Z,993.22
2023-09-22T00:10:22.228Z,993.17
2023-09-22T00:11:22.236Z,993.18
2023-09-22T00:12:22.215Z,993.16
2023-09-22T00:13:22.211Z,993.18
2023-09-22T00:14:22.180Z,993.18
2023-09-22T00:15:22.213Z,993.18
2023-09-22T00:16:22.192Z,993.18
2023-09-22T00:17:22.162Z,993.15
2023-09-22T00:18:22.209Z,993.18
2023-09-22T00:19:22.149Z,993.11
2023-09-22T00:20:22.139Z,993.12
2023-09-22T00:21:22.181Z,993.07
2023-09-22T00:22:22.130Z,993.09
2023-09-22T00:23:22.090Z,993.06
2023-09-22T00:24:22.108Z,993.10
2023-09-22T00:25:22.088Z,993.14
2023-09-22T00:26:22.060Z,993.20
2023-09-22T00:27:22.133Z,993.30
2023-09-22T00:28:22.086Z,993.34
2023-09-22T00:29:22.032Z,993.34
2023-09-22T00:30:22.031Z,993.37
2023-09-22T00:31:22.164Z,993.34
2023-09-22T00:32:21.997Z,993.40
2023-09-22T00:33:22.064Z,993.39
2023-09-22T00:34:21.985Z,993.44
2023-09-22T00:35:22.079Z,993.44
2023-09-22T00:36:21.949Z,993.40
2023-09-22T00:37:21.961Z,993.43
2023-09-22T00:38:21.925Z,993.44
2023-09-22T00:39:21.971Z,993.42
2023-09-22T00:40:21.918Z,993.38
2023-09-22T00:41:21.897Z,993.41
2023-09-22T00:42:21.921Z,993.45
2023-09-22T00:43:21.875Z,993.41
2023-09-22T00:44:21.900Z,993.39
2023-09-22T00:45:21.892Z,993.42
2023-09-22T00:46:21.886Z,993.40
2023-09-22T00:47:21.829Z,993.40
2023-09-22T00:48:21.856Z,993.42
2023-09-22T00:49:21.817Z,993.45
2023-09-22T00:50:21.798Z,993.47
2023-09-22T00:51:21.917Z,993.43
2023-09-22T00:52:21.777Z,993.40
2023-09-22T00:53:21.803Z,993.35
2023-09-22T00:54:21.784Z,993.35
2023-09-22T00:55:21.742Z,993.34
2023-09-22T00:56:21.730Z,993.39
2023-09-22T00:57:21.748Z,993.38
2023-09-22T00:58:21.729Z,993.37
2023-09-22T00:59:23.460Z,993.39
2023-09-22T01:00:21.712Z,993.39
2023-09-22T01:01:21.727Z,993.37
2023-09-22T01:02:21.663Z,993.38
2023-09-22T01:03:21.859Z,993.38
2023-09-22T01:04:21.734Z,993.34
2023-09-22T01:05:21.633Z,993.37
2023-09-22T01:06:21.655Z,993.34
2023-09-22T01:07:21.643Z,993.30
2023-09-22T01:08:21.610Z,993.32
2023-09-22T01:09:22.389Z,993.34
2023-09-22T01:10:21.588Z,993.34
2023-09-22T01:11:21.590Z,993.36
2023-09-22T01:12:21.590Z,993.34
2023-09-22T01:13:21.555Z,993.35
2023-09-22T01:14:21.552Z,993.36
2023-09-22T01:15:21.583Z,993.37
2023-09-22T01:16:21.530Z,993.44
2023-09-22T01:17:21.519Z,993.45
2023-09-22T01:18:21.582Z,993.47
2023-09-22T01:19:21.492Z,993.48
2023-09-22T01:20:21.475Z,993.45
2023-09-22T01:21:21.508Z,993.44
2023-09-22T01:22:21.471Z,993.46
2023-09-22T01:23:21.577Z,993.44
2023-09-22T01:24:21.459Z,993.47
2023-09-22T01:25:21.424Z,993.49
2023-09-22T01:26:21.426Z,993.49
2023-09-22T01:27:21.433Z,993.45
2023-09-22T01:28:21.391Z,993.41
2023-09-22T01:29:21.390Z,993.42
2023-09-22T01:30:21.411Z,993.45
2023-09-22T01:31:21.384Z,993.45
2023-09-22T01:32:21.347Z,993.52
2023-09-22T01:33:21.385Z,993.51
2023-09-22T01:34:21.344Z,993.46
2023-09-22T01:35:21.337Z,993.49
2023-09-22T01:36:21.353Z,993.45
2023-09-22T01:37:21.296Z,993.44
2023-09-22T01:38:21.282Z,993.46
2023-09-22T01:39:21.381Z,993.51
2023-09-22T01:40:21.277Z,993.49
2023-09-22T01:41:21.262Z,993.53
2023-09-22T01:42:21.293Z,993.58
2023-09-22T01:43:21.238Z,993.60
2023-09-22T01:44:21.270Z,993.65
2023-09-22T01:45:21.314Z,993.66
2023-09-22T01:46:21.306Z,993.69
2023-09-22T01:47:21.196Z,993.70
2023-09-22T01:48:21.201Z,993.74
2023-09-22T01:49:21.196Z,993.80
2023-09-22T01:50:21.182Z,993.75
2023-09-22T01:51:21.171Z,993.76
2023-09-22T01:52:21.138Z,993.78
2023-09-22T01:53:21.139Z,993.79
2023-09-22T01:54:21.181Z,993.83
2023-09-22T01:55:21.130Z,993.84
2023-09-22T01:56:21.099Z,993.86
2023-09-22T01:57:21.237Z,993.86
2023-09-22T01:58:21.074Z,993.83
2023-09-22T01:59:21.073Z,993.81
2023-09-22T02:00:21.101Z,993.79
2023-09-22T02:01:21.062Z,993.82
2023-09-22T02:02:21.050Z,993.84
2023-09-22T02:03:21.298Z,993.82
2023-09-22T02:04:21.233Z,993.82
2023-09-22T02:05:21.041Z,993.85
2023-09-22T02:06:21.050Z,993.83
2023-09-22T02:07:20.983Z,993.84
2023-09-22T02:08:20.990Z,993.86
2023-09-22T02:09:20.996Z,993.86
2023-09-22T02:10:20.955Z,993.84
2023-09-22T02:11:21.058Z,993.84
2023-09-22T02:12:20.952Z,993.84
2023-09-22T02:13:20.930Z,993.87
2023-09-22T02:14:20.911Z,993.83
2023-09-22T02:15:20.973Z,993.82
2023-09-22T02:16:21.012Z,993.80
2023-09-22T02:17:20.887Z,993.81
2023-09-22T02:18:20.895Z,993.76
2023-09-22T02:19:20.856Z,993.80
2023-09-22T02:20:20.840Z,993.75
2023-09-22T02:21:20.868Z,993.77
2023-09-22T02:22:20.847Z,993.74
2023-09-22T02:23:20.807Z,993.75
2023-09-22T02:24:20.802Z,993.83
2023-09-22T02:25:20.799Z,993.83
2023-09-22T02:26:20.773Z,993.89
2023-09-22T02:27:20.931Z,993.87
2023-09-22T02:28:20.755Z,993.84
2023-09-22T02:29:20.743Z,993.91
2023-09-22T02:30:20.779Z,993.98
2023-09-22T02:31:20.755Z,993.91
2023-09-22T02:32:20.722Z,993.94
2023-09-22T02:33:20.726Z,994.00
2023-09-22T02:34:20.692Z,994.02
2023-09-22T02:35:20.687Z,994.05
2023-09-22T02:36:20.694Z,994.03
2023-09-22T02:37:20.679Z,994.02
2023-09-22T02:38:20.648Z,993.99
2023-09-22T02:39:20.658Z,993.97
2023-09-22T02:40:20.628Z,993.99
2023-09-22T02:41:20.627Z,993.97
2023-09-22T02:42:20.624Z,994.06
2023-09-22T02:43:20.615Z,994.10
2023-09-22T02:44:20.583Z,994.16
2023-09-22T02:45:20.726Z,994.20
2023-09-22T02:46:20.689Z,994.25
2023-09-22T02:47:20.604Z,994.34
2023-09-22T02:48:20.741Z,994.33
2023-09-22T02:49:20.533Z,994.36
2023-09-22T02:50:20.637Z,994.39
2023-09-22T02:51:20.563Z,994.36
2023-09-22T02:52:20.508Z,994.37
2023-09-22T02:53:20.491Z,994.36
2023-09-22T02:54:20.590Z,994.37
2023-09-22T02:55:20.524Z,994.36
2023-09-22T02:56:20.457Z,994.37
2023-09-22T02:57:20.577Z,994.37
2023-09-22T02:58:20.442Z,994.40
2023-09-22T02:59:20.449Z,994.39
2023-09-22T03:00:20.819Z,994.36
2023-09-22T03:01:20.498Z,994.34
2023-09-22T03:02:20.450Z,994.40
2023-09-22T03:03:20.456Z,994.44
2023-09-22T03:04:20.382Z,994.49
2023-09-22T03:05:20.645Z,994.51
2023-09-22T03:06:20.388Z,994.49
2023-09-22T03:07:20.351Z,994.58
2023-09-22T03:08:20.346Z,994.55
2023-09-22T03:09:20.366Z,994.59
2023-09-22T03:10:20.368Z,994.56
2023-09-22T03:11:20.312Z,994.56
2023-09-22T03:12:20.292Z,994.62
2023-09-22T03:13:20.301Z,994.56
2023-09-22T03:14:20.283Z,994.58
2023-09-22T03:15:20.280Z,994.54
2023-09-22T03:16:20.314Z,994.56
2023-09-22T03:17:20.235Z,994.60
2023-09-22T03:18:20.225Z,994.63
2023-09-22T03:19:20.252Z,994.66
2023-09-22T03:20:20.212Z,994.67
2023-09-22T03:21:20.213Z,994.66
2023-09-22T03:22:20.187Z,994.67
2023-09-22T03:23:20.198Z,994.70
2023-09-22T03:24:20.180Z,994.71
2023-09-22T03:25:20.164Z,994.73
2023-09-22T03:26:20.153Z,994.69
2023-09-22T03:27:20.131Z,994.68
2023-09-22T03:28:20.139Z,994.71
2023-09-22T03:29:20.111Z,994.75
2023-09-22T03:30:20.123Z,994.83
2023-09-22T03:31:20.210Z,994.80
2023-09-22T03:32:20.111Z,994.89
2023-09-22T03:33:20.080Z,994.87
2023-09-22T03:34:20.062Z,994.87
2023-09-22T03:35:20.063Z,994.87
2023-09-22T03:36:20.039Z,994.88
2023-09-22T03:37:20.037Z,994.90
2023-09-22T03:38:20.078Z,994.95
2023-09-22T03:39:20.017Z,994.99
2023-09-22T03:40:19.999Z,995.02
2023-09-22T03:41:19.987Z,994.98
2023-09-22T03:42:19.991Z,995.04
2023-09-22T03:43:19.977Z,995.10
2023-09-22T03:44:19.958Z,995.09
2023-09-22T03:45:20.329Z,995.20
2023-09-22T03:46:19.967Z,995.20
2023-09-22T03:47:19.960Z,995.26
2023-09-22T03:48:19.914Z,995.35
2023-09-22T03:49:19.900Z,995.41
2023-09-22T03:50:19.898Z,995.38
2023-09-22T03:51:19.896Z,995.48
2023-09-22T03:52:19.894Z,995.43
2023-09-22T03:53:19.903Z,995.40
2023-09-22T03:54:19.855Z,995.34
2023-09-22T03:55:19.835Z,995.43
2023-09-22T03:56:19.854Z,995.43
2023-09-22T03:57:19.854Z,995.46
2023-09-22T03:58:19.806Z,995.49
2023-09-22T03:59:19.797Z,995.52
2023-09-22T04:00:20.023Z,995.52
2023-09-22T04:01:19.939Z,995.48
2023-09-22T04:02:19.764Z,995.50
2023-09-22T04:03:19.894Z,995.48
2023-09-22T04:04:19.836Z,995.46
2023-09-22T04:05:19.728Z,995.44
2023-09-22T04:06:19.737Z,995.51
2023-09-22T04:07:19.706Z,995.54
2023-09-22T04:08:19.700Z,995.52
2023-09-22T04:09:19.683Z,995.57
2023-09-22T04:10:19.700Z,995.62
2023-09-22T04:11:19.681Z,995.65
2023-09-22T04:12:19.664Z,995.61
2023-09-22T04:13:19.644Z,995.60
2023-09-22T04:14:19.631Z,995.57
2023-09-22T04:15:19.639Z,995.54
2023-09-22T04:16:19.682Z,995.54
2023-09-22T04:17:19.748Z,995.51
2023-09-22T04:18:19.596Z,995.47
2023-09-22T04:19:19.604Z,995.43
2023-09-22T04:20:19.607Z,995.48
2023-09-22T04:21:19.554Z,995.48
2023-09-22T04:22:19.546Z,995.43
2023-09-22T04:23:19.534Z,995.42
2023-09-22T04:24:19.523Z,995.36
2023-09-22T04:25:19.536Z,995.38
2023-09-22T04:26:19.510Z,995.29
2023-09-22T04:27:19.490Z,995.31
2023-09-22T04:28:19.489Z,995.32
2023-09-22T04:29:22.195Z,995.31
2023-09-22T04:30:19.470Z,995.38
2023-09-22T04:31:19.543Z,995.39
2023-09-22T04:32:19.442Z,995.33
2023-09-22T04:33:19.423Z,995.40
2023-09-22T04:34:19.426Z,995.43
2023-09-22T04:35:19.428Z,995.40
2023-09-22T04:36:19.396Z,995.27
2023-09-22T04:37:19.381Z,995.25
2023-09-22T04:38:19.537Z,995.23
2023-09-22T04:39:19.374Z,995.22
2023-09-22T04:40:19.357Z,995.23
2023-09-22T04:41:19.345Z,995.17
2023-09-22T04:42:19.357Z,995.07
2023-09-22T04:43:19.336Z,995.02
2023-09-22T04:44:19.523Z,995.04
2023-09-22T04:45:19.310Z,995.04
2023-09-22T04:46:19.381Z,995.05
2023-09-22T04:47:19.277Z,995.07
2023-09-22T04:48:19.283Z,995.09
2023-09-22T04:49:19.276Z,995.06
2023-09-22T04:50:19.251Z,995.12
2023-09-22T04:51:19.250Z,995.18
2023-09-22T04:52:19.231Z,995.23
2023-09-22T04:53:19.230Z,995.29
2023-09-22T04:54:19.209Z,995.26
2023-09-22T04:55:19.195Z,995.31
2023-09-22T04:56:19.183Z,995.28
2023-09-22T04:57:19.178Z,995.33
2023-09-22T04:58:19.179Z,995.43
2023-09-22T04:59:19.195Z,995.56
2023-09-22T05:00:19.144Z,995.60
2023-09-22T05:01:19.203Z,995.64
2023-09-22T05:02:19.169Z,995.67
2023-09-22T05:03:19.165Z,995.69
2023-09-22T05:04:19.204Z,995.72
2023-09-22T05:05:19.078Z,995.72
2023-09-22T05:06:19.070Z,995.72
2023-09-22T05:07:19.103Z,995.71
2023-09-22T05:08:19.056Z,995.72
2023-09-22T05:09:19.060Z,995.70
2023-09-22T05:10:19.040Z,995.71
2023-09-22T05:11:19.042Z,995.66
2023-09-22T05:12:19.033Z,995.65
2023-09-22T05:13:18.998Z,995.60
2023-09-22T05:14:18.987Z,995.55
2023-09-22T05:15:18.972Z,995.46
2023-09-22T05:16:19.099Z,995.48
2023-09-22T05:17:18.957Z,995.42
2023-09-22T05:18:18.939Z,995.41
2023-09-22T05:19:18.967Z,995.48
2023-09-22T05:20:18.921Z,995.56
2023-09-22T05:21:18.931Z,995.59
2023-09-22T05:22:18.898Z,995.58
2023-09-22T05:23:18.916Z,995.54
2023-09-22T05:24:18.883Z,995.55
2023-09-22T05:25:18.880Z,995.57
2023-09-22T05:26:18.870Z,995.55
2023-09-22T05:27:18.844Z,995.55
2023-09-22T05:28:18.831Z,995.58
2023-09-22T05:29:18.822Z,995.58
2023-09-22T05:30:18.829Z,995.55
2023-09-22T05:31:18.835Z,995.58
2023-09-22T05:32:18.796Z,995.55
2023-09-22T05:33:18.781Z,995.59
2023-09-22T05:34:18.774Z,995.62
2023-09-22T05:35:18.832Z,995.64
2023-09-22T05:36:18.774Z,995.65
2023-09-22T05:37:18.734Z,995.70
2023-09-22T05:38:18.742Z,995.75
2023-09-22T05:39:18.753Z,995.80
2023-09-22T05:40:18.713Z,995.81
2023-09-22T05:41:18.742Z,995.88
2023-09-22T05:42:18.683Z,995.92
2023-09-22T05:43:18.667Z,995.97
2023-09-22T05:44:18.700Z,996.02
2023-09-22T05:45:18.672Z,996.01
2023-09-22T05:46:18.675Z,996.04
2023-09-22T05:47:18.629Z,996.06
2023-09-22T05:48:18.617Z,996.10
2023-09-22T05:49:18.622Z,996.11
2023-09-22T05:50:18.603Z,996.12
2023-09-22T05:51:18.583Z,996.20
2023-09-22T05:52:18.577Z,996.30
2023-09-22T05:53:18.563Z,996.32
2023-09-22T05:54:18.562Z,996.41
2023-09-22T05:55:18.649Z,996.45
2023-09-22T05:56:18.532Z,996.51
2023-09-22T05:57:18.519Z,996.55
2023-09-22T05:58:18.517Z,996.52
2023-09-22T05:59:18.547Z,996.56
2023-09-22T06:00:18.491Z,996.59
2023-09-22T06:01:18.592Z,996.61
2023-09-22T06:02:18.477Z,996.66
2023-09-22T06:03:18.461Z,996.67
2023-09-22T06:04:18.531Z,996.72
2023-09-22T06:05:18.434Z,996.73
2023-09-22T06:06:18.425Z,996.75
2023-09-22T06:07:18.411Z,996.77
2023-09-22T06:08:18.448Z,996.73
2023-09-22T06:09:18.389Z,996.75
2023-09-22T06:10:18.394Z,996.78
2023-09-22T06:11:18.400Z,996.80
2023-09-22T06:12:18.395Z,996.78
2023-09-22T06:13:18.354Z,996.76
2023-09-22T06:14:18.368Z,996.78
2023-09-22T06:15:18.370Z,996.76
2023-09-22T06:16:18.396Z,996.82
2023-09-22T06:17:20.647Z,996.77
2023-09-22T06:18:18.334Z,996.80
2023-09-22T06:19:18.336Z,996.82
2023-09-22T06:20:18.290Z,996.81
2023-09-22T06:21:18.262Z,996.76
2023-09-22T06:22:18.327Z,996.72
2023-09-22T06:23:18.248Z,996.68
2023-09-22T06:24:18.231Z,996.68
2023-09-22T06:25:18.225Z,996.65
2023-09-22T06:26:18.211Z,996.69
2023-09-22T06:27:18.220Z,996.74
2023-09-22T06:28:18.251Z,996.72
2023-09-22T06:29:18.172Z,996.74
2023-09-22T06:30:18.167Z,996.86
2023-09-22T06:31:18.174Z,996.88
2023-09-22T06:32:18.150Z,996.88
2023-09-22T06:33:18.139Z,996.94
2023-09-22T06:34:18.115Z,996.89
2023-09-22T06:35:18.128Z,996.86
2023-09-22T06:36:18.122Z,996.87
2023-09-22T06:37:18.104Z,996.90
2023-09-22T06:38:18.094Z,996.95
2023-09-22T06:39:18.067Z,996.98
2023-09-22T06:40:18.057Z,997.03
2023-09-22T06:41:18.063Z,997.07
2023-09-22T06:42:18.049Z,997.06
2023-09-22T06:43:23.612Z,997.06
2023-09-22T06:44:19.006Z,997.06
2023-09-22T06:45:18.267Z,997.02
2023-09-22T06:46:18.134Z,997.02
2023-09-22T06:47:17.977Z,996.95
2023-09-22T06:48:17.970Z,996.90
2023-09-22T06:49:18.023Z,996.92
2023-09-22T06:50:17.952Z,996.93
2023-09-22T06:51:17.944Z,996.93
2023-09-22T06:52:17.928Z,996.92
2023-09-22T06:53:17.914Z,996.90
2023-09-22T06:54:17.903Z,996.84
2023-09-22T06:55:17.928Z,996.83
2023-09-22T06:56:17.934Z,996.85
2023-09-22T06:57:17.872Z,996.98
2023-09-22T06:58:17.865Z,997.05
2023-09-22T06:59:17.897Z,997.04
2023-09-22T07:00:17.898Z,997.13
2023-09-22T07:01:17.975Z,997.17
2023-09-22T07:02:17.833Z,997.17
2023-09-22T07:04:17.875Z,997.30
2023-09-22T07:05:17.792Z,997.29
2023-09-22T07:06:17.770Z,997.29
2023-09-22T07:07:17.771Z,997.26
2023-09-22T07:08:17.748Z,997.24
2023-09-22T07:09:17.742Z,997.23
2023-09-22T07:10:17.743Z,997.25
2023-09-22T07:11:17.738Z,997.26
2023-09-22T07:12:17.734Z,997.28
2023-09-22T07:13:17.729Z,997.31
2023-09-22T07:14:17.700Z,997.31
2023-09-22T07:15:17.764Z,997.34
2023-09-22T07:16:17.778Z,997.39
2023-09-22T07:17:17.687Z,997.43
2023-09-22T07:18:17.647Z,997.45
2023-09-22T07:19:17.714Z,997.50
2023-09-22T07:20:17.625Z,997.56
2023-09-22T07:21:17.612Z,997.60
2023-09-22T07:22:17.612Z,997.61
2023-09-22T07:23:17.600Z,997.61
2023-09-22T07:24:17.634Z,997.67
2023-09-22T07:25:17.572Z,997.68
2023-09-22T07:26:17.622Z,997.67
2023-09-22T07:27:17.750Z,997.70
2023-09-22T07:28:17.596Z,997.65
2023-09-22T07:29:17.544Z,997.63
2023-09-22T07:30:17.518Z,997.63
2023-09-22T07:31:17.595Z,997.65
2023-09-22T07:32:17.503Z,997.64
2023-09-22T07:33:17.498Z,997.66
2023-09-22T07:34:17.569Z,997.63
2023-09-22T07:35:17.464Z,997.63
2023-09-22T07:36:17.454Z,997.67
2023-09-22T07:37:21.330Z,997.65
2023-09-22T07:38:17.446Z,997.64
2023-09-22T07:39:17.448Z,997.68
2023-09-22T07:40:17.432Z,997.77
2023-09-22T07:41:17.405Z,997.87
2023-09-22T07:42:17.423Z,997.91
2023-09-22T07:43:17.468Z,997.96
2023-09-22T07:44:17.368Z,997.92
2023-09-22T07:45:17.361Z,997.97
2023-09-22T07:46:17.443Z,997.95
2023-09-22T07:47:19.098Z,998.00
2023-09-22T07:48:17.415Z,997.95
2023-09-22T07:49:17.343Z,997.96
2023-09-22T07:50:17.320Z,997.96
2023-09-22T07:51:17.336Z,997.94
2023-09-22T07:52:17.301Z,997.95
2023-09-22T07:53:17.277Z,998.00
2023-09-22T07:54:17.304Z,997.96
2023-09-22T07:55:17.262Z,997.96
2023-09-22T07:56:17.280Z,997.96
2023-09-22T07:57:17.257Z,997.99
2023-09-22T07:58:17.222Z,998.01
2023-09-22T07:59:17.386Z,998.05
2023-09-22T08:00:17.202Z,998.09
2023-09-22T08:01:17.345Z,998.16
2023-09-22T08:02:17.190Z,998.15
2023-09-22T08:03:17.292Z,998.17
2023-09-22T08:04:17.258Z,998.15
2023-09-22T08:05:17.168Z,998.18
2023-09-22T08:06:17.143Z,998.18
2023-09-22T08:07:17.145Z,998.18
2023-09-22T08:08:17.114Z,998.13
2023-09-22T08:09:17.105Z,998.09
2023-09-22T08:10:17.110Z,998.10
2023-09-22T08:11:17.102Z,998.04
2023-09-22T08:12:17.082Z,998.09
2023-09-22T08:13:17.068Z,998.10
2023-09-22T08:14:17.049Z,998.10
2023-09-22T08:15:17.079Z,998.12
2023-09-22T08:16:17.128Z,998.15
2023-09-22T08:17:17.021Z,998.20
2023-09-22T08:18:17.044Z,998.26
2023-09-22T08:19:17.077Z,998.27
2023-09-22T08:20:16.999Z,998.22
2023-09-22T08:21:16.986Z,998.15
2023-09-22T08:22:17.002Z,998.12
2023-09-22T08:23:16.964Z,998.16
2023-09-22T08:24:18.236Z,998.20
2023-09-22T08:25:17.021Z,998.27
2023-09-22T08:26:16.930Z,998.31
2023-09-22T08:27:16.932Z,998.35
2023-09-22T08:28:16.921Z,998.35
2023-09-22T08:29:16.906Z,998.37
2023-09-22T08:30:16.957Z,998.43
2023-09-22T08:31:16.894Z,998.45
2023-09-22T08:32:16.875Z,998.49
2023-09-22T08:33:16.875Z,998.56
2023-09-22T08:34:16.986Z,998.60
2023-09-22T08:35:16.889Z,998.57
2023-09-22T08:36:16.823Z,998.60
2023-09-22T08:37:16.826Z,998.63
2023-09-22T08:38:16.805Z,998.64
2023-09-22T08:39:16.799Z,998.62
2023-09-22T08:40:16.958Z,998.63
2023-09-22T08:41:16.767Z,998.68
2023-09-22T08:42:16.793Z,998.67
2023-09-22T08:43:16.820Z,998.67
2023-09-22T08:44:16.751Z,998.68
2023-09-22T08:45:17.096Z,998.69
2023-09-22T08:46:16.904Z,998.69
2023-09-22T08:47:18.568Z,998.68
2023-09-22T08:48:16.790Z,998.67
2023-09-22T08:49:16.716Z,998.67
2023-09-22T08:50:16.678Z,998.67
2023-09-22T08:51:16.678Z,998.67
2023-09-22T08:52:16.696Z,998.67
2023-09-22T08:53:16.653Z,998.66
2023-09-22T08:54:16.635Z,998.68
2023-09-22T08:55:16.731Z,998.70
2023-09-22T08:56:16.622Z,998.69
2023-09-22T08:57:16.597Z,998.73
2023-09-22T08:58:16.605Z,998.75
2023-09-22T08:59:16.578Z,998.80
2023-09-22T09:00:16.560Z,998.82
2023-09-22T09:01:16.602Z,998.83
2023-09-22T09:02:16.685Z,998.84
2023-09-22T09:03:16.596Z,998.82
2023-09-22T09:04:16.547Z,998.80
2023-09-22T09:05:18.593Z,998.77
2023-09-22T09:06:16.509Z,998.73
2023-09-22T09:07:16.528Z,998.74
2023-09-22T09:08:16.478Z,998.78
2023-09-22T09:09:16.478Z,998.79
2023-09-22T09:10:16.491Z,998.77
2023-09-22T09:11:16.454Z,998.84
2023-09-22T09:12:16.448Z,998.85
2023-09-22T09:13:16.460Z,998.91
2023-09-22T09:14:16.416Z,998.83
2023-09-22T09:15:16.408Z,998.88
2023-09-22T09:16:16.474Z,998.86
2023-09-22T09:17:16.409Z,998.89
2023-09-22T09:18:16.365Z,998.92
2023-09-22T09:19:16.377Z,998.92
2023-09-22T09:20:16.358Z,999.00
2023-09-22T09:21:17.222Z,999.04
2023-09-22T09:22:16.347Z,999.04
2023-09-22T09:23:16.739Z,999.10
2023-09-22T09:24:16.322Z,999.09
2023-09-22T09:25:16.323Z,999.12
2023-09-22T09:26:16.284Z,999.14
2023-09-22T09:27:16.269Z,999.15
2023-09-22T09:28:16.272Z,999.16
2023-09-22T09:29:16.251Z,999.17
2023-09-22T09:30:16.243Z,999.18
2023-09-22T09:31:16.281Z,999.19
2023-09-22T09:32:16.220Z,999.23
2023-09-22T09:33:16.227Z,999.24
2023-09-22T09:34:16.275Z,999.23
2023-09-22T09:35:18.312Z,999.26
2023-09-22T09:36:16.171Z,999.24
2023-09-22T09:37:16.195Z,999.26
2023-09-22T09:38:16.149Z,999.22
2023-09-22T09:39:16.154Z,999.16
2023-09-22T09:40:16.198Z,999.13
2023-09-22T09:41:16.120Z,999.12
2023-09-22T09:42:16.111Z,999.20
2023-09-22T09:43:16.141Z,999.19
2023-09-22T09:44:16.110Z,999.25
2023-09-22T09:45:16.092Z,999.24
2023-09-22T09:46:16.095Z,999.28
2023-09-22T09:47:16.053Z,999.31
2023-09-22T09:48:16.055Z,999.33
2023-09-22T09:49:16.070Z,999.35
2023-09-22T09:50:16.043Z,999.38
2023-09-22T09:51:16.015Z,999.32
2023-09-22T09:52:16.030Z,999.39
2023-09-22T09:53:15.995Z,999.39
2023-09-22T09:54:15.993Z,999.44
2023-09-22T09:55:16.239Z,999.41
2023-09-22T09:56:15.954Z,999.42
2023-09-22T09:57:15.942Z,999.41
2023-09-22T09:58:15.972Z,999.40
2023-09-22T09:59:15.938Z,999.37
2023-09-22T10:00:15.916Z,999.36
2023-09-22T10:01:16.017Z,999.32
2023-09-22T10:02:15.976Z,999.32
2023-09-22T10:03:16.000Z,999.33
2023-09-22T10:04:15.934Z,999.27
2023-09-22T10:05:16.741Z,999.27
2023-09-22T10:06:15.858Z,999.27
2023-09-22T10:07:15.899Z,999.22
2023-09-22T10:08:15.871Z,999.18
2023-09-22T10:09:15.813Z,999.18
2023-09-22T10:10:15.851Z,999.19
2023-09-22T10:11:15.821Z,999.24
2023-09-22T10:12:15.786Z,999.24
2023-09-22T10:13:15.788Z,999.27
2023-09-22T10:14:15.757Z,999.27
2023-09-22T10:15:15.773Z,999.28
2023-09-22T10:16:15.856Z,999.25
2023-09-22T10:17:15.741Z,999.26
2023-09-22T10:18:15.729Z,999.28
2023-09-22T10:19:15.733Z,999.30
2023-09-22T10:20:15.692Z,999.30
2023-09-22T10:21:15.688Z,999.24
2023-09-22T10:22:15.757Z,999.25
2023-09-22T10:23:15.668Z,999.23
2023-09-22T10:24:15.657Z,999.25
2023-09-22T10:25:15.775Z,999.22
2023-09-22T10:26:15.670Z,999.23
2023-09-22T10:27:15.694Z,999.20
2023-09-22T10:28:15.644Z,999.19
2023-09-22T10:29:15.607Z,999.22
2023-09-22T10:30:15.590Z,999.16
2023-09-22T10:31:15.684Z,999.18
2023-09-22T10:32:15.585Z,999.21
2023-09-22T10:33:15.564Z,999.25
2023-09-22T10:34:15.548Z,999.28
2023-09-22T10:35:15.535Z,999.32
2023-09-22T10:36:15.529Z,999.35
2023-09-22T10:37:15.533Z,999.28
2023-09-22T10:38:15.504Z,999.33
2023-09-22T10:39:15.526Z,999.29
2023-09-22T10:40:15.505Z,999.29
2023-09-22T10:41:15.504Z,999.32
2023-09-22T10:42:15.463Z,999.31
2023-09-22T10:43:15.514Z,999.32
2023-09-22T10:44:15.437Z,999.34
2023-09-22T10:45:15.443Z,999.33
2023-09-22T10:46:15.495Z,999.29
2023-09-22T10:47:15.405Z,999.32
2023-09-22T10:48:15.392Z,999.34
2023-09-22T10:49:15.426Z,999.35
2023-09-22T10:50:15.404Z,999.38
2023-09-22T10:51:15.360Z,999.42
2023-09-22T10:52:15.356Z,999.45
2023-09-22T10:53:15.344Z,999.49
2023-09-22T10:54:16.244Z,999.45
2023-09-22T10:55:15.347Z,999.47
2023-09-22T10:56:15.306Z,999.43
2023-09-22T10:57:15.296Z,999.41
2023-09-22T10:58:15.325Z,999.43
2023-09-22T10:59:15.357Z,999.39
2023-09-22T11:00:15.274Z,999.35
2023-09-22T11:01:15.361Z,999.29
2023-09-22T11:02:15.302Z,999.32
2023-09-22T11:03:15.297Z,999.28
2023-09-22T11:04:15.317Z,999.29
2023-09-22T11:05:15.275Z,999.28
2023-09-22T11:06:15.288Z,999.31
2023-09-22T11:07:15.246Z,999.31
2023-09-22T11:08:15.207Z,999.31
2023-09-22T11:09:15.196Z,999.27
2023-09-22T11:10:15.193Z,999.30
2023-09-22T11:11:15.141Z,999.28
2023-09-22T11:12:15.137Z,999.25
2023-09-22T11:13:15.193Z,999.27
2023-09-22T11:14:15.124Z,999.24
2023-09-22T11:15:15.157Z,999.26
2023-09-22T11:16:15.174Z,999.25
2023-09-22T11:17:15.143Z,999.24
2023-09-22T11:18:16.203Z,999.26
2023-09-22T11:19:15.090Z,999.22
2023-09-22T11:20:15.060Z,999.22
2023-09-22T11:21:15.039Z,999.15
2023-09-22T11:22:15.057Z,999.18
2023-09-22T11:23:15.018Z,999.17
2023-09-22T11:24:15.043Z,999.10
2023-09-22T11:25:15.003Z,999.13
2023-09-22T11:26:14.989Z,999.08
2023-09-22T11:27:14.982Z,999.07
2023-09-22T11:28:15.018Z,999.05
2023-09-22T11:29:14.950Z,999.04
2023-09-22T11:30:14.945Z,999.08
2023-09-22T11:31:14.987Z,999.09
2023-09-22T11:32:15.043Z,999.10
2023-09-22T11:33:14.982Z,999.11
2023-09-22T11:34:14.935Z,999.11
2023-09-22T11:35:25.925Z,999.17
2023-09-22T11:36:15.879Z,999.16
2023-09-22T11:37:14.912Z,999.19
2023-09-22T11:38:14.847Z,999.20
2023-09-22T11:39:14.849Z,999.22
2023-09-22T11:40:14.862Z,999.26
2023-09-22T11:41:14.829Z,999.27
2023-09-22T11:42:14.825Z,999.32
2023-09-22T11:43:14.835Z,999.34
2023-09-22T11:44:14.785Z,999.38
2023-09-22T11:45:14.878Z,999.39
2023-09-22T11:46:15.013Z,999.47
2023-09-22T11:47:14.824Z,999.54
2023-09-22T11:48:14.744Z,999.51
2023-09-22T11:49:14.752Z,999.56
2023-09-22T11:50:14.721Z,999.56
2023-09-22T11:51:15.654Z,999.57
2023-09-22T11:52:14.739Z,999.59
2023-09-22T11:53:14.689Z,999.60
2023-09-22T11:54:17.800Z,999.58
2023-09-22T11:55:14.783Z,999.59
2023-09-22T11:56:14.672Z,999.61
2023-09-22T11:57:14.656Z,999.63
2023-09-22T11:58:14.688Z,999.66
2023-09-22T11:59:14.654Z,999.66
2023-09-22T12:00:14.625Z,999.69
2023-09-22T12:01:14.775Z,999.71
2023-09-22T12:02:14.756Z,999.71
2023-09-22T12:03:14.709Z,999.67
2023-09-22T12:04:14.686Z,999.70
2023-09-22T12:05:14.578Z,999.67
2023-09-22T12:06:14.565Z,999.68
2023-09-22T12:07:14.584Z,999.68
2023-09-22T12:08:14.535Z,999.70
2023-09-22T12:09:14.564Z,999.63
2023-09-22T12:10:14.548Z,999.69
2023-09-22T12:11:14.502Z,999.66
2023-09-22T12:12:14.505Z,999.66
2023-09-22T12:13:14.517Z,999.66
2023-09-22T12:14:14.556Z,999.67
2023-09-22T12:15:14.471Z,999.70
2023-09-22T12:16:14.484Z,999.71
2023-09-22T12:17:14.440Z,999.72
2023-09-22T12:18:14.461Z,999.70
2023-09-22T12:19:14.496Z,999.74
2023-09-22T12:20:14.414Z,999.67
2023-09-22T12:21:14.403Z,999.66
2023-09-22T12:22:14.437Z,999.65
2023-09-22T12:23:14.376Z,999.66
2023-09-22T12:24:14.377Z,999.66
2023-09-22T12:25:14.428Z,999.73
2023-09-22T12:26:14.344Z,999.76
2023-09-22T12:27:14.339Z,999.82
2023-09-22T12:28:14.329Z,999.84
2023-09-22T12:29:14.320Z,999.84